sensor_id;sensor_type;location;lat;lon;timestamp;temperature;humidity
15700;DHT22;7950;42.744;23.174;2023-12-29T00:00:09;1.70;99.90
15700;DHT22;7950;42.744;23.174;2023-12-29T00:02:39;1.70;99.90
15700;DHT22;7950;42.744;23.174;2023-12-29T00:05:09;1.80;99.90
15700;DHT22;7950;42.744;23.174;2023-12-29T00:07:38;1.80;99.90
15700;DHT22;7950;42.744;23.174;2023-12-29T00:10:07;1.90;99.90
15700;DHT22;7950;42.744;23.174;2023-12-29T00:12:36;1.80;99.90
15700;DHT22;7950;42.744;23.174;2023-12-29T00:15:06;1.70;99.90
15700;DHT22;7950;42.744;23.174;2023-12-29T00:17:36;1.80;99.90
15700;DHT22;7950;42.744;23.174;2023-12-29T00:20:10;1.70;99.90
15700;DHT22;7950;42.744;23.174;2023-12-29T00:22:47;1.70;99.90
15700;DHT22;7950;42.744;23.174;2023-12-29T00:25:16;1.60;99.90
15700;DHT22;7950;42.744;23.174;2023-12-29T00:27:45;1.70;99.90
15700;DHT22;7950;42.744;23.174;2023-12-29T00:30:13;1.70;99.90
15700;DHT22;7950;42.744;23.174;2023-12-29T00:32:42;1.70;99.90
15700;DHT22;7950;42.744;23.174;2023-12-29T00:35:12;1.60;99.90
15700;DHT22;7950;42.744;23.174;2023-12-29T00:37:41;1.50;99.90
15700;DHT22;7950;42.744;23.174;2023-12-29T00:40:10;1.50;99.90
15700;DHT22;7950;42.744;23.174;2023-12-29T00:42:39;1.40;99.90
15700;DHT22;7950;42.744;23.174;2023-12-29T00:45:09;1.30;99.90
15700;DHT22;7950;42.744;23.174;2023-12-29T00:47:38;1.30;99.90
15700;DHT22;7950;42.744;23.174;2023-12-29T00:50:07;1.40;99.90
15700;DHT22;7950;42.744;23.174;2023-12-29T00:52:38;1.30;99.90
15700;DHT22;7950;42.744;23.174;2023-12-29T00:55:07;1.30;99.90
15700;DHT22;7950;42.744;23.174;2023-12-29T00:57:36;1.30;99.90
15700;DHT22;7950;42.744;23.174;2023-12-29T01:00:07;1.30;99.90
15700;DHT22;7950;42.744;23.174;2023-12-29T01:02:39;1.30;99.90
15700;DHT22;7950;42.744;23.174;2023-12-29T01:05:08;1.30;99.90
15700;DHT22;7950;42.744;23.174;2023-12-29T01:07:38;1.10;99.90
15700;DHT22;7950;42.744;23.174;2023-12-29T01:10:07;1.20;99.90
15700;DHT22;7950;42.744;23.174;2023-12-29T01:12:37;1.10;99.90
15700;DHT22;7950;42.744;23.174;2023-12-29T01:15:06;1.30;99.90
15700;DHT22;7950;42.744;23.174;2023-12-29T01:17:35;1.40;99.90
15700;DHT22;7950;42.744;23.174;2023-12-29T01:20:04;1.30;99.90
15700;DHT22;7950;42.744;23.174;2023-12-29T01:22:34;1.30;99.90
15700;DHT22;7950;42.744;23.174;2023-12-29T01:25:04;1.30;99.90
15700;DHT22;7950;42.744;23.174;2023-12-29T01:27:33;1.20;99.90
15700;DHT22;7950;42.744;23.174;2023-12-29T01:30:02;1.20;99.90
15700;DHT22;7950;42.744;23.174;2023-12-29T01:32:31;1.20;99.90
15700;DHT22;7950;42.744;23.174;2023-12-29T01:35:00;1.10;99.90
15700;DHT22;7950;42.744;23.174;2023-12-29T01:37:29;1.20;99.90
15700;DHT22;7950;42.744;23.174;2023-12-29T01:39:57;1.20;99.90
15700;DHT22;7950;42.744;23.174;2023-12-29T01:42:27;1.10;99.90
15700;DHT22;7950;42.744;23.174;2023-12-29T01:44:56;1.10;99.90
15700;DHT22;7950;42.744;23.174;2023-12-29T01:47:25;1.20;99.90
15700;DHT22;7950;42.744;23.174;2023-12-29T01:49:53;1.20;99.90
15700;DHT22;7950;42.744;23.174;2023-12-29T01:52:23;1.30;99.90
15700;DHT22;7950;42.744;23.174;2023-12-29T01:54:52;1.30;99.90
15700;DHT22;7950;42.744;23.174;2023-12-29T01:57:21;1.30;99.90
15700;DHT22;7950;42.744;23.174;2023-12-29T01:59:51;1.20;99.90
15700;DHT22;7950;42.744;23.174;2023-12-29T02:02:19;1.20;99.90
15700;DHT22;7950;42.744;23.174;2023-12-29T02:04:48;1.20;99.90
15700;DHT22;7950;42.744;23.174;2023-12-29T02:07:17;1.20;99.90
15700;DHT22;7950;42.744;23.174;2023-12-29T02:09:47;1.10;99.90
15700;DHT22;7950;42.744;23.174;2023-12-29T02:12:19;1.10;99.90
15700;DHT22;7950;42.744;23.174;2023-12-29T02:14:48;1.20;99.90
15700;DHT22;7950;42.744;23.174;2023-12-29T02:17:24;1.10;99.90
15700;DHT22;7950;42.744;23.174;2023-12-29T02:19:59;1.10;99.90
15700;DHT22;7950;42.744;23.174;2023-12-29T02:22:28;1.10;99.90
15700;DHT22;7950;42.744;23.174;2023-12-29T02:24:58;1.10;99.90
15700;DHT22;7950;42.744;23.174;2023-12-29T02:27:34;1.10;99.90
15700;DHT22;7950;42.744;23.174;2023-12-29T02:30:18;1.10;99.90
15700;DHT22;7950;42.744;23.174;2023-12-29T02:32:53;1.10;99.90
15700;DHT22;7950;42.744;23.174;2023-12-29T02:35:28;1.10;99.90
15700;DHT22;7950;42.744;23.174;2023-12-29T02:38:01;1.10;99.90
15700;DHT22;7950;42.744;23.174;2023-12-29T02:40:32;1.00;99.90
15700;DHT22;7950;42.744;23.174;2023-12-29T02:43:01;1.00;99.90
15700;DHT22;7950;42.744;23.174;2023-12-29T02:45:30;1.00;99.90
15700;DHT22;7950;42.744;23.174;2023-12-29T02:47:58;0.90;99.90
15700;DHT22;7950;42.744;23.174;2023-12-29T02:50:27;1.00;99.90
15700;DHT22;7950;42.744;23.174;2023-12-29T02:52:56;0.90;99.90
15700;DHT22;7950;42.744;23.174;2023-12-29T02:55:25;0.90;99.90
15700;DHT22;7950;42.744;23.174;2023-12-29T02:57:54;0.90;99.90
15700;DHT22;7950;42.744;23.174;2023-12-29T03:00:23;0.90;99.90
15700;DHT22;7950;42.744;23.174;2023-12-29T03:02:52;0.80;99.90
15700;DHT22;7950;42.744;23.174;2023-12-29T03:05:20;0.80;99.90
15700;DHT22;7950;42.744;23.174;2023-12-29T03:07:49;0.80;99.90
15700;DHT22;7950;42.744;23.174;2023-12-29T03:10:18;0.80;99.90
15700;DHT22;7950;42.744;23.174;2023-12-29T03:12:47;0.80;99.90
15700;DHT22;7950;42.744;23.174;2023-12-29T03:15:17;0.80;99.90
15700;DHT22;7950;42.744;23.174;2023-12-29T03:17:46;0.80;99.90
15700;DHT22;7950;42.744;23.174;2023-12-29T03:20:15;0.70;99.90
15700;DHT22;7950;42.744;23.174;2023-12-29T03:22:44;0.60;99.90
15700;DHT22;7950;42.744;23.174;2023-12-29T03:25:12;0.60;99.90
15700;DHT22;7950;42.744;23.174;2023-12-29T03:27:41;0.60;99.90
15700;DHT22;7950;42.744;23.174;2023-12-29T03:30:11;0.50;99.90
15700;DHT22;7950;42.744;23.174;2023-12-29T03:32:41;0.50;99.90
15700;DHT22;7950;42.744;23.174;2023-12-29T03:35:10;0.50;99.90
15700;DHT22;7950;42.744;23.174;2023-12-29T03:37:38;0.60;99.90
15700;DHT22;7950;42.744;23.174;2023-12-29T03:40:08;0.50;99.90
15700;DHT22;7950;42.744;23.174;2023-12-29T03:42:37;0.60;99.90
15700;DHT22;7950;42.744;23.174;2023-12-29T03:45:06;0.60;99.90
15700;DHT22;7950;42.744;23.174;2023-12-29T03:47:36;0.50;99.90
15700;DHT22;7950;42.744;23.174;2023-12-29T03:50:07;0.50;99.90
15700;DHT22;7950;42.744;23.174;2023-12-29T03:52:36;0.50;99.90
15700;DHT22;7950;42.744;23.174;2023-12-29T03:55:06;0.50;99.90
15700;DHT22;7950;42.744;23.174;2023-12-29T03:57:36;0.40;99.90
15700;DHT22;7950;42.744;23.174;2023-12-29T04:00:05;0.40;99.90
15700;DHT22;7950;42.744;23.174;2023-12-29T04:02:35;0.40;99.90
15700;DHT22;7950;42.744;23.174;2023-12-29T04:05:08;0.40;99.90
15700;DHT22;7950;42.744;23.174;2023-12-29T04:07:39;0.30;99.90
15700;DHT22;7950;42.744;23.174;2023-12-29T04:10:09;0.20;99.90
15700;DHT22;7950;42.744;23.174;2023-12-29T04:12:37;0.30;99.90
15700;DHT22;7950;42.744;23.174;2023-12-29T04:15:07;0.30;99.90
15700;DHT22;7950;42.744;23.174;2023-12-29T04:17:39;0.40;99.90
15700;DHT22;7950;42.744;23.174;2023-12-29T04:20:09;0.30;99.90
15700;DHT22;7950;42.744;23.174;2023-12-29T04:22:38;0.30;99.90
15700;DHT22;7950;42.744;23.174;2023-12-29T04:25:07;0.30;99.90
15700;DHT22;7950;42.744;23.174;2023-12-29T04:27:36;0.40;99.90
15700;DHT22;7950;42.744;23.174;2023-12-29T04:30:06;0.30;99.90
15700;DHT22;7950;42.744;23.174;2023-12-29T04:32:35;0.20;99.90
15700;DHT22;7950;42.744;23.174;2023-12-29T04:35:05;0.20;99.90
15700;DHT22;7950;42.744;23.174;2023-12-29T04:37:35;0.20;99.90
15700;DHT22;7950;42.744;23.174;2023-12-29T04:40:05;0.20;99.90
15700;DHT22;7950;42.744;23.174;2023-12-29T04:42:34;0.10;99.90
15700;DHT22;7950;42.744;23.174;2023-12-29T04:45:04;0.20;99.90
15700;DHT22;7950;42.744;23.174;2023-12-29T04:47:33;0.20;99.90
15700;DHT22;7950;42.744;23.174;2023-12-29T04:50:02;0.20;99.90
15700;DHT22;7950;42.744;23.174;2023-12-29T04:52:32;0.20;99.90
15700;DHT22;7950;42.744;23.174;2023-12-29T04:55:03;0.20;99.90
15700;DHT22;7950;42.744;23.174;2023-12-29T04:57:32;0.20;99.90
15700;DHT22;7950;42.744;23.174;2023-12-29T05:00:01;0.20;99.90
15700;DHT22;7950;42.744;23.174;2023-12-29T05:02:29;0.10;99.90
15700;DHT22;7950;42.744;23.174;2023-12-29T05:04:58;0.10;99.90
15700;DHT22;7950;42.744;23.174;2023-12-29T05:07:27;0.10;99.90
15700;DHT22;7950;42.744;23.174;2023-12-29T05:09:55;0.10;99.90
15700;DHT22;7950;42.744;23.174;2023-12-29T05:12:26;0.10;99.90
15700;DHT22;7950;42.744;23.174;2023-12-29T05:14:54;0.00;99.90
15700;DHT22;7950;42.744;23.174;2023-12-29T05:17:23;0.00;99.90
15700;DHT22;7950;42.744;23.174;2023-12-29T05:19:52;-0.10;99.90
15700;DHT22;7950;42.744;23.174;2023-12-29T05:22:21;-0.10;99.90
15700;DHT22;7950;42.744;23.174;2023-12-29T05:24:49;-0.10;99.90
15700;DHT22;7950;42.744;23.174;2023-12-29T05:27:18;-0.10;99.90
15700;DHT22;7950;42.744;23.174;2023-12-29T05:29:48;-0.20;99.90
15700;DHT22;7950;42.744;23.174;2023-12-29T05:32:16;-0.20;99.90
15700;DHT22;7950;42.744;23.174;2023-12-29T05:34:45;-0.10;99.90
15700;DHT22;7950;42.744;23.174;2023-12-29T05:37:14;-0.10;99.90
15700;DHT22;7950;42.744;23.174;2023-12-29T05:39:42;-0.10;99.90
15700;DHT22;7950;42.744;23.174;2023-12-29T05:42:11;-0.10;99.90
15700;DHT22;7950;42.744;23.174;2023-12-29T05:44:40;-0.10;99.90
15700;DHT22;7950;42.744;23.174;2023-12-29T05:47:10;-0.10;99.90
15700;DHT22;7950;42.744;23.174;2023-12-29T05:49:40;-0.10;99.90
15700;DHT22;7950;42.744;23.174;2023-12-29T05:52:12;-0.10;99.90
15700;DHT22;7950;42.744;23.174;2023-12-29T05:54:40;-0.10;99.90
15700;DHT22;7950;42.744;23.174;2023-12-29T05:57:09;-0.10;99.90
15700;DHT22;7950;42.744;23.174;2023-12-29T05:59:37;0.00;99.90
15700;DHT22;7950;42.744;23.174;2023-12-29T06:02:07;-0.10;99.90
15700;DHT22;7950;42.744;23.174;2023-12-29T06:04:37;-0.10;99.90
15700;DHT22;7950;42.744;23.174;2023-12-29T06:07:05;-0.10;99.90
15700;DHT22;7950;42.744;23.174;2023-12-29T06:09:35;-0.20;99.90
15700;DHT22;7950;42.744;23.174;2023-12-29T06:12:05;-0.20;99.90
15700;DHT22;7950;42.744;23.174;2023-12-29T06:14:36;-0.20;99.90
15700;DHT22;7950;42.744;23.174;2023-12-29T06:17:05;-0.20;99.90
15700;DHT22;7950;42.744;23.174;2023-12-29T06:19:34;-0.20;99.90
15700;DHT22;7950;42.744;23.174;2023-12-29T06:22:04;-0.20;99.90
15700;DHT22;7950;42.744;23.174;2023-12-29T06:24:33;-0.20;99.90
15700;DHT22;7950;42.744;23.174;2023-12-29T06:27:01;0.00;99.90
15700;DHT22;7950;42.744;23.174;2023-12-29T06:29:30;0.30;99.90
15700;DHT22;7950;42.744;23.174;2023-12-29T06:31:59;0.50;99.90
15700;DHT22;7950;42.744;23.174;2023-12-29T06:34:27;0.60;99.90
15700;DHT22;7950;42.744;23.174;2023-12-29T06:36:56;0.70;99.90
15700;DHT22;7950;42.744;23.174;2023-12-29T06:39:27;0.80;99.90
15700;DHT22;7950;42.744;23.174;2023-12-29T06:41:56;0.80;99.90
15700;DHT22;7950;42.744;23.174;2023-12-29T06:44:25;0.80;99.90
15700;DHT22;7950;42.744;23.174;2023-12-29T06:46:56;0.70;99.90
15700;DHT22;7950;42.744;23.174;2023-12-29T06:49:25;0.70;99.90
15700;DHT22;7950;42.744;23.174;2023-12-29T06:51:54;0.70;99.90
15700;DHT22;7950;42.744;23.174;2023-12-29T06:54:23;0.70;99.90
15700;DHT22;7950;42.744;23.174;2023-12-29T06:56:53;0.70;99.90
15700;DHT22;7950;42.744;23.174;2023-12-29T06:59:22;0.70;99.90
15700;DHT22;7950;42.744;23.174;2023-12-29T07:01:51;0.90;99.90
15700;DHT22;7950;42.744;23.174;2023-12-29T07:04:22;1.10;99.90
15700;DHT22;7950;42.744;23.174;2023-12-29T07:06:51;1.30;99.90
15700;DHT22;7950;42.744;23.174;2023-12-29T07:09:19;1.60;99.90
15700;DHT22;7950;42.744;23.174;2023-12-29T07:11:48;2.00;99.90
15700;DHT22;7950;42.744;23.174;2023-12-29T07:14:19;2.20;99.90
15700;DHT22;7950;42.744;23.174;2023-12-29T07:16:47;2.20;99.90
15700;DHT22;7950;42.744;23.174;2023-12-29T07:19:16;2.30;99.90
15700;DHT22;7950;42.744;23.174;2023-12-29T07:21:45;2.50;99.90
15700;DHT22;7950;42.744;23.174;2023-12-29T07:24:13;2.80;99.90
15700;DHT22;7950;42.744;23.174;2023-12-29T07:26:42;3.00;99.90
15700;DHT22;7950;42.744;23.174;2023-12-29T07:29:11;3.10;99.90
15700;DHT22;7950;42.744;23.174;2023-12-29T07:31:41;3.20;99.90
15700;DHT22;7950;42.744;23.174;2023-12-29T07:34:10;3.20;99.90
15700;DHT22;7950;42.744;23.174;2023-12-29T07:36:39;3.40;99.90
15700;DHT22;7950;42.744;23.174;2023-12-29T07:39:07;3.70;99.90
15700;DHT22;7950;42.744;23.174;2023-12-29T07:41:39;4.00;99.90
15700;DHT22;7950;42.744;23.174;2023-12-29T07:44:10;4.00;99.90
15700;DHT22;7950;42.744;23.174;2023-12-29T07:46:41;4.00;99.90
15700;DHT22;7950;42.744;23.174;2023-12-29T07:49:11;4.00;99.90
15700;DHT22;7950;42.744;23.174;2023-12-29T07:51:40;4.10;99.90
15700;DHT22;7950;42.744;23.174;2023-12-29T07:54:09;4.20;99.90
15700;DHT22;7950;42.744;23.174;2023-12-29T07:56:38;4.20;99.90
15700;DHT22;7950;42.744;23.174;2023-12-29T07:59:06;4.10;99.90
15700;DHT22;7950;42.744;23.174;2023-12-29T08:01:36;4.10;99.90
15700;DHT22;7950;42.744;23.174;2023-12-29T08:04:06;4.00;99.90
15700;DHT22;7950;42.744;23.174;2023-12-29T08:06:38;3.90;99.90
15700;DHT22;7950;42.744;23.174;2023-12-29T08:09:06;3.80;99.90
15700;DHT22;7950;42.744;23.174;2023-12-29T08:11:35;3.70;99.90
15700;DHT22;7950;42.744;23.174;2023-12-29T08:14:04;3.70;99.90
15700;DHT22;7950;42.744;23.174;2023-12-29T08:16:38;3.60;99.90
15700;DHT22;7950;42.744;23.174;2023-12-29T08:19:08;3.60;99.90
15700;DHT22;7950;42.744;23.174;2023-12-29T08:21:37;3.60;99.90
15700;DHT22;7950;42.744;23.174;2023-12-29T08:24:06;3.60;99.90
15700;DHT22;7950;42.744;23.174;2023-12-29T08:26:43;3.70;99.90
15700;DHT22;7950;42.744;23.174;2023-12-29T08:29:16;3.80;99.90
15700;DHT22;7950;42.744;23.174;2023-12-29T08:31:46;3.90;99.90
15700;DHT22;7950;42.744;23.174;2023-12-29T08:34:16;3.90;99.90
15700;DHT22;7950;42.744;23.174;2023-12-29T08:36:46;4.00;99.90
15700;DHT22;7950;42.744;23.174;2023-12-29T08:39:15;4.00;99.90
15700;DHT22;7950;42.744;23.174;2023-12-29T08:41:44;4.10;99.90
15700;DHT22;7950;42.744;23.174;2023-12-29T08:44:16;4.20;99.90
15700;DHT22;7950;42.744;23.174;2023-12-29T08:46:45;4.40;99.90
15700;DHT22;7950;42.744;23.174;2023-12-29T08:49:13;4.80;99.90
15700;DHT22;7950;42.744;23.174;2023-12-29T08:51:44;5.50;99.90
15700;DHT22;7950;42.744;23.174;2023-12-29T08:54:13;5.90;99.90
15700;DHT22;7950;42.744;23.174;2023-12-29T08:56:42;6.50;99.90
15700;DHT22;7950;42.744;23.174;2023-12-29T08:59:10;7.90;99.90
15700;DHT22;7950;42.744;23.174;2023-12-29T09:01:39;9.80;99.90
15700;DHT22;7950;42.744;23.174;2023-12-29T09:04:08;11.90;99.90
15700;DHT22;7950;42.744;23.174;2023-12-29T09:06:36;13.60;90.80
15700;DHT22;7950;42.744;23.174;2023-12-29T09:09:10;15.10;80.90
15700;DHT22;7950;42.744;23.174;2023-12-29T09:11:40;15.40;71.80
15700;DHT22;7950;42.744;23.174;2023-12-29T09:14:09;14.70;71.90
15700;DHT22;7950;42.744;23.174;2023-12-29T09:16:38;13.60;72.70
15700;DHT22;7950;42.744;23.174;2023-12-29T09:19:10;12.40;81.00
15700;DHT22;7950;42.744;23.174;2023-12-29T09:21:57;11.40;90.00
15700;DHT22;7950;42.744;23.174;2023-12-29T09:24:26;10.70;99.50
15700;DHT22;7950;42.744;23.174;2023-12-29T09:26:55;10.60;99.90
15700;DHT22;7950;42.744;23.174;2023-12-29T09:29:24;10.70;99.90
15700;DHT22;7950;42.744;23.174;2023-12-29T09:31:52;10.80;99.90
15700;DHT22;7950;42.744;23.174;2023-12-29T09:34:21;11.00;99.90
15700;DHT22;7950;42.744;23.174;2023-12-29T09:36:49;11.20;99.90
15700;DHT22;7950;42.744;23.174;2023-12-29T09:39:18;11.30;99.90
15700;DHT22;7950;42.744;23.174;2023-12-29T09:41:51;11.60;99.90
15700;DHT22;7950;42.744;23.174;2023-12-29T09:44:21;11.80;99.90
15700;DHT22;7950;42.744;23.174;2023-12-29T09:46:50;11.80;99.70
15700;DHT22;7950;42.744;23.174;2023-12-29T09:49:22;12.00;99.90
15700;DHT22;7950;42.744;23.174;2023-12-29T09:51:52;12.20;99.00
15700;DHT22;7950;42.744;23.174;2023-12-29T09:54:21;12.40;97.20
15700;DHT22;7950;42.744;23.174;2023-12-29T09:56:52;12.40;93.60
15700;DHT22;7950;42.744;23.174;2023-12-29T09:59:21;12.30;96.20
15700;DHT22;7950;42.744;23.174;2023-12-29T10:01:53;12.30;96.10
15700;DHT22;7950;42.744;23.174;2023-12-29T10:04:22;12.20;93.80
15700;DHT22;7950;42.744;23.174;2023-12-29T10:06:52;12.10;92.70
15700;DHT22;7950;42.744;23.174;2023-12-29T10:09:23;11.70;95.40
15700;DHT22;7950;42.744;23.174;2023-12-29T10:11:56;11.30;97.90
15700;DHT22;7950;42.744;23.174;2023-12-29T10:14:31;11.10;99.30
15700;DHT22;7950;42.744;23.174;2023-12-29T10:17:12;10.90;99.90
15700;DHT22;7950;42.744;23.174;2023-12-29T10:19:53;10.70;99.90
15700;DHT22;7950;42.744;23.174;2023-12-29T10:22:33;10.40;99.90
15700;DHT22;7950;42.744;23.174;2023-12-29T10:25:09;10.10;99.90
15700;DHT22;7950;42.744;23.174;2023-12-29T10:27:39;10.00;99.90
15700;DHT22;7950;42.744;23.174;2023-12-29T10:30:10;9.70;99.90
15700;DHT22;7950;42.744;23.174;2023-12-29T10:32:54;9.40;99.90
15700;DHT22;7950;42.744;23.174;2023-12-29T10:35:23;9.20;99.90
15700;DHT22;7950;42.744;23.174;2023-12-29T10:37:54;9.20;99.90
15700;DHT22;7950;42.744;23.174;2023-12-29T10:40:23;9.30;99.90
15700;DHT22;7950;42.744;23.174;2023-12-29T10:42:54;9.40;99.90
15700;DHT22;7950;42.744;23.174;2023-12-29T10:45:25;9.60;99.90
15700;DHT22;7950;42.744;23.174;2023-12-29T10:47:53;9.70;99.90
15700;DHT22;7950;42.744;23.174;2023-12-29T10:50:22;9.70;99.90
15700;DHT22;7950;42.744;23.174;2023-12-29T10:52:51;9.80;99.90
15700;DHT22;7950;42.744;23.174;2023-12-29T10:55:23;10.10;99.90
15700;DHT22;7950;42.744;23.174;2023-12-29T10:58:01;10.30;99.90
15700;DHT22;7950;42.744;23.174;2023-12-29T11:00:30;10.50;99.90
15700;DHT22;7950;42.744;23.174;2023-12-29T11:02:59;10.70;99.90
15700;DHT22;7950;42.744;23.174;2023-12-29T11:05:29;10.90;99.90
15700;DHT22;7950;42.744;23.174;2023-12-29T11:07:57;11.20;99.90
15700;DHT22;7950;42.744;23.174;2023-12-29T11:10:26;11.30;99.90
15700;DHT22;7950;42.744;23.174;2023-12-29T11:12:55;11.50;99.90
15700;DHT22;7950;42.744;23.174;2023-12-29T11:15:27;11.70;99.90
15700;DHT22;7950;42.744;23.174;2023-12-29T11:17:56;11.80;99.90
15700;DHT22;7950;42.744;23.174;2023-12-29T11:20:27;11.80;99.90
15700;DHT22;7950;42.744;23.174;2023-12-29T11:22:56;11.80;99.90
15700;DHT22;7950;42.744;23.174;2023-12-29T11:25:25;11.70;99.90
15700;DHT22;7950;42.744;23.174;2023-12-29T11:27:55;11.80;99.90
15700;DHT22;7950;42.744;23.174;2023-12-29T11:30:27;11.80;99.90
15700;DHT22;7950;42.744;23.174;2023-12-29T11:32:59;12.00;99.90
15700;DHT22;7950;42.744;23.174;2023-12-29T11:35:35;12.00;99.90
15700;DHT22;7950;42.744;23.174;2023-12-29T11:38:40;12.00;99.90
15700;DHT22;7950;42.744;23.174;2023-12-29T11:41:20;11.90;99.90
15700;DHT22;7950;42.744;23.174;2023-12-29T11:43:59;11.90;99.90
15700;DHT22;7950;42.744;23.174;2023-12-29T11:46:37;11.90;99.90
15700;DHT22;7950;42.744;23.174;2023-12-29T11:49:07;11.80;99.90
15700;DHT22;7950;42.744;23.174;2023-12-29T11:51:39;11.90;99.90
15700;DHT22;7950;42.744;23.174;2023-12-29T11:54:08;11.90;99.90
15700;DHT22;7950;42.744;23.174;2023-12-29T11:56:38;12.00;99.90
15700;DHT22;7950;42.744;23.174;2023-12-29T11:59:15;12.00;99.90
15700;DHT22;7950;42.744;23.174;2023-12-29T12:01:47;12.10;99.90
15700;DHT22;7950;42.744;23.174;2023-12-29T12:04:37;12.10;99.90
15700;DHT22;7950;42.744;23.174;2023-12-29T12:07:12;12.20;99.90
15700;DHT22;7950;42.744;23.174;2023-12-29T12:09:42;12.30;99.90
15700;DHT22;7950;42.744;23.174;2023-12-29T12:12:11;12.50;99.90
15700;DHT22;7950;42.744;23.174;2023-12-29T12:14:51;12.60;99.90
15700;DHT22;7950;42.744;23.174;2023-12-29T12:17:29;12.70;99.90
15700;DHT22;7950;42.744;23.174;2023-12-29T12:20:02;12.90;99.90
15700;DHT22;7950;42.744;23.174;2023-12-29T12:22:32;13.00;99.90
15700;DHT22;7950;42.744;23.174;2023-12-29T12:25:05;13.10;99.90
15700;DHT22;7950;42.744;23.174;2023-12-29T12:27:37;13.20;99.90
15700;DHT22;7950;42.744;23.174;2023-12-29T12:30:07;13.20;99.90
15700;DHT22;7950;42.744;23.174;2023-12-29T12:32:39;13.30;99.90
15700;DHT22;7950;42.744;23.174;2023-12-29T12:35:14;13.30;99.90
15700;DHT22;7950;42.744;23.174;2023-12-29T12:37:46;13.40;99.90
15700;DHT22;7950;42.744;23.174;2023-12-29T12:40:25;13.40;99.90
15700;DHT22;7950;42.744;23.174;2023-12-29T12:42:55;13.40;99.90
15700;DHT22;7950;42.744;23.174;2023-12-29T12:45:26;13.40;99.90
15700;DHT22;7950;42.744;23.174;2023-12-29T12:48:01;13.40;99.90
15700;DHT22;7950;42.744;23.174;2023-12-29T12:50:31;13.50;99.90
15700;DHT22;7950;42.744;23.174;2023-12-29T12:53:00;13.60;99.90
15700;DHT22;7950;42.744;23.174;2023-12-29T12:55:36;13.60;99.90
15700;DHT22;7950;42.744;23.174;2023-12-29T12:58:07;13.70;98.50
15700;DHT22;7950;42.744;23.174;2023-12-29T13:00:37;13.70;98.70
15700;DHT22;7950;42.744;23.174;2023-12-29T13:03:10;13.80;97.80
15700;DHT22;7950;42.744;23.174;2023-12-29T13:05:40;13.80;97.50
15700;DHT22;7950;42.744;23.174;2023-12-29T13:08:11;13.90;94.80
15700;DHT22;7950;42.744;23.174;2023-12-29T13:10:49;13.90;94.60
15700;DHT22;7950;42.744;23.174;2023-12-29T13:13:19;13.90;90.10
15700;DHT22;7950;42.744;23.174;2023-12-29T13:15:48;13.90;89.30
15700;DHT22;7950;42.744;23.174;2023-12-29T13:18:28;13.90;86.30
15700;DHT22;7950;42.744;23.174;2023-12-29T13:20:58;13.90;87.20
15700;DHT22;7950;42.744;23.174;2023-12-29T13:23:29;13.90;82.60
15700;DHT22;7950;42.744;23.174;2023-12-29T13:26:05;13.90;82.10
15700;DHT22;7950;42.744;23.174;2023-12-29T13:28:35;13.90;81.40
15700;DHT22;7950;42.744;23.174;2023-12-29T13:31:09;13.80;82.50
15700;DHT22;7950;42.744;23.174;2023-12-29T13:33:48;13.80;83.50
15700;DHT22;7950;42.744;23.174;2023-12-29T13:36:33;13.80;84.50
15700;DHT22;7950;42.744;23.174;2023-12-29T13:39:09;13.70;85.20
15700;DHT22;7950;42.744;23.174;2023-12-29T13:41:42;13.70;84.40
15700;DHT22;7950;42.744;23.174;2023-12-29T13:44:13;13.60;83.80
15700;DHT22;7950;42.744;23.174;2023-12-29T13:46:42;13.60;83.70
15700;DHT22;7950;42.744;23.174;2023-12-29T13:49:12;13.60;83.90
15700;DHT22;7950;42.744;23.174;2023-12-29T13:51:43;13.50;83.80
15700;DHT22;7950;42.744;23.174;2023-12-29T13:54:13;13.50;84.80
15700;DHT22;7950;42.744;23.174;2023-12-29T13:56:51;13.50;86.20
15700;DHT22;7950;42.744;23.174;2023-12-29T13:59:29;13.40;87.50
15700;DHT22;7950;42.744;23.174;2023-12-29T14:02:02;13.40;87.30
15700;DHT22;7950;42.744;23.174;2023-12-29T14:04:45;13.30;88.60
15700;DHT22;7950;42.744;23.174;2023-12-29T14:07:14;13.30;90.00
15700;DHT22;7950;42.744;23.174;2023-12-29T14:09:47;13.20;90.30
15700;DHT22;7950;42.744;23.174;2023-12-29T14:12:24;13.20;90.90
15700;DHT22;7950;42.744;23.174;2023-12-29T14:14:53;13.00;91.90
15700;DHT22;7950;42.744;23.174;2023-12-29T14:17:22;12.90;92.60
15700;DHT22;7950;42.744;23.174;2023-12-29T14:19:52;12.80;93.30
15700;DHT22;7950;42.744;23.174;2023-12-29T14:22:22;12.70;93.90
15700;DHT22;7950;42.744;23.174;2023-12-29T14:25:00;12.60;94.20
15700;DHT22;7950;42.744;23.174;2023-12-29T14:27:31;12.40;94.00
15700;DHT22;7950;42.744;23.174;2023-12-29T14:29:59;12.30;94.00
15700;DHT22;7950;42.744;23.174;2023-12-29T14:32:29;12.10;94.60
15700;DHT22;7950;42.744;23.174;2023-12-29T14:35:00;12.00;95.30
15700;DHT22;7950;42.744;23.174;2023-12-29T14:37:36;11.80;95.50
15700;DHT22;7950;42.744;23.174;2023-12-29T14:40:06;11.60;96.50
15700;DHT22;7950;42.744;23.174;2023-12-29T14:42:39;11.50;97.10
15700;DHT22;7950;42.744;23.174;2023-12-29T14:45:09;11.30;97.80
15700;DHT22;7950;42.744;23.174;2023-12-29T14:47:38;11.10;98.70
15700;DHT22;7950;42.744;23.174;2023-12-29T14:50:09;10.90;99.70
15700;DHT22;7950;42.744;23.174;2023-12-29T14:52:37;10.80;99.90
15700;DHT22;7950;42.744;23.174;2023-12-29T14:55:06;10.60;99.90
15700;DHT22;7950;42.744;23.174;2023-12-29T14:57:35;10.60;99.90
15700;DHT22;7950;42.744;23.174;2023-12-29T15:00:05;10.40;99.90
15700;DHT22;7950;42.744;23.174;2023-12-29T15:02:36;10.40;99.90
15700;DHT22;7950;42.744;23.174;2023-12-29T15:05:04;10.30;99.90
15700;DHT22;7950;42.744;23.174;2023-12-29T15:07:35;10.20;99.90
15700;DHT22;7950;42.744;23.174;2023-12-29T15:10:04;10.00;99.90
15700;DHT22;7950;42.744;23.174;2023-12-29T15:12:33;9.90;99.90
15700;DHT22;7950;42.744;23.174;2023-12-29T15:15:03;9.80;99.90
15700;DHT22;7950;42.744;23.174;2023-12-29T15:17:32;9.60;99.90
15700;DHT22;7950;42.744;23.174;2023-12-29T15:20:00;9.50;99.90
15700;DHT22;7950;42.744;23.174;2023-12-29T15:22:30;9.40;99.90
15700;DHT22;7950;42.744;23.174;2023-12-29T15:25:00;9.30;99.90
15700;DHT22;7950;42.744;23.174;2023-12-29T15:27:28;9.20;99.90
15700;DHT22;7950;42.744;23.174;2023-12-29T15:29:57;9.10;99.90
15700;DHT22;7950;42.744;23.174;2023-12-29T15:32:26;8.90;99.90
15700;DHT22;7950;42.744;23.174;2023-12-29T15:34:58;8.70;99.90
15700;DHT22;7950;42.744;23.174;2023-12-29T15:37:26;8.60;99.90
15700;DHT22;7950;42.744;23.174;2023-12-29T15:39:55;8.50;99.90
15700;DHT22;7950;42.744;23.174;2023-12-29T15:42:29;8.30;99.90
15700;DHT22;7950;42.744;23.174;2023-12-29T15:44:57;8.10;99.90
15700;DHT22;7950;42.744;23.174;2023-12-29T15:47:26;8.00;99.90
15700;DHT22;7950;42.744;23.174;2023-12-29T15:49:58;7.90;99.90
15700;DHT22;7950;42.744;23.174;2023-12-29T15:52:26;7.70;99.90
15700;DHT22;7950;42.744;23.174;2023-12-29T15:54:55;7.60;99.90
15700;DHT22;7950;42.744;23.174;2023-12-29T15:57:26;7.50;99.90
15700;DHT22;7950;42.744;23.174;2023-12-29T15:59:55;7.40;99.90